createdAt,value
2023-01-20T00:01:16.907Z,58.60
2023-01-20T00:03:45.739Z,65.22
2023-01-20T00:06:16.064Z,59.60
2023-01-20T00:08:44.543Z,62.17
2023-01-20T00:11:14.035Z,56.67
2023-01-20T00:13:42.562Z,56.72
2023-01-20T00:16:12.404Z,64.40
2023-01-20T00:18:42.591Z,63.35
2023-01-20T00:21:12.669Z,62.75
2023-01-20T00:23:41.714Z,62.85
2023-01-20T00:26:12.000Z,68.75
2023-01-20T00:28:40.728Z,68.47
2023-01-20T00:31:13.949Z,63.05
2023-01-20T00:33:44.549Z,76.18
2023-01-20T00:36:13.989Z,77.85
2023-01-20T00:38:42.471Z,68.35
2023-01-20T00:41:11.667Z,72.35
2023-01-20T00:43:40.060Z,72.03
2023-01-20T00:46:09.448Z,74.30
2023-01-20T00:48:38.855Z,74.45
2023-01-20T00:51:10.288Z,75.28
2023-01-20T00:53:38.889Z,73.60
2023-01-20T00:56:08.024Z,74.00
2023-01-20T00:58:36.589Z,71.35
2023-01-20T01:01:05.241Z,73.53
2023-01-20T01:03:33.694Z,83.63
2023-01-20T01:06:12.628Z,75.97
2023-01-20T01:08:41.689Z,82.65
2023-01-20T01:11:11.305Z,76.88
2023-01-20T01:13:39.929Z,83.45
2023-01-20T01:16:12.760Z,71.55
2023-01-20T01:18:42.059Z,78.18
2023-01-20T01:21:13.631Z,68.30
2023-01-20T01:23:42.331Z,69.00
2023-01-20T01:26:11.020Z,67.90
2023-01-20T01:28:39.853Z,52.15
2023-01-20T01:31:09.364Z,59.38
2023-01-20T01:33:37.943Z,58.05
2023-01-20T01:36:08.462Z,64.10
2023-01-20T01:38:38.389Z,78.93
2023-01-20T01:41:07.118Z,83.18
2023-01-20T01:43:37.816Z,85.45
2023-01-20T01:46:07.447Z,83.47
2023-01-20T01:48:39.798Z,85.63
2023-01-20T01:51:12.534Z,74.20
2023-01-20T01:53:46.636Z,84.75
2023-01-20T01:56:17.594Z,90.93
2023-01-20T01:58:49.840Z,88.93
2023-01-20T02:01:19.659Z,87.43
2023-01-20T02:03:56.015Z,92.38
2023-01-20T02:06:28.200Z,99.55
2023-01-20T02:08:58.727Z,88.85
2023-01-20T02:11:27.153Z,79.35
2023-01-20T02:13:56.003Z,82.32
2023-01-20T02:16:32.609Z,79.68
2023-01-20T02:19:17.789Z,72.10
2023-01-20T02:22:10.757Z,83.65
2023-01-20T02:25:20.252Z,71.97
2023-01-20T02:28:25.298Z,63.75
2023-01-20T02:31:08.956Z,66.55
2023-01-20T02:33:44.585Z,64.68
2023-01-20T02:36:16.633Z,65.65
2023-01-20T02:38:49.762Z,62.10
2023-01-20T02:41:24.740Z,69.97
2023-01-20T02:44:02.807Z,64.57
2023-01-20T02:46:35.913Z,57.65
2023-01-20T02:49:13.612Z,61.33
2023-01-20T02:51:48.440Z,59.72
2023-01-20T02:54:19.668Z,58.67
2023-01-20T02:56:50.879Z,58.10
2023-01-20T02:59:24.699Z,60.88
2023-01-20T03:01:57.978Z,73.22
2023-01-20T03:04:31.048Z,61.10
2023-01-20T03:07:01.915Z,63.85
2023-01-20T03:09:34.700Z,72.88
2023-01-20T03:12:10.334Z,68.30
2023-01-20T03:14:39.170Z,70.60
2023-01-20T03:17:07.600Z,69.57
2023-01-20T03:19:37.973Z,70.45
2023-01-20T03:22:06.907Z,74.80
2023-01-20T03:24:37.393Z,68.70
2023-01-20T03:27:06.668Z,67.22
2023-01-20T03:29:35.491Z,79.57
2023-01-20T03:32:05.820Z,69.15
2023-01-20T03:34:38.933Z,75.47
2023-01-20T03:37:14.783Z,73.90
2023-01-20T03:39:43.399Z,71.40
2023-01-20T03:42:17.270Z,71.65
2023-01-20T03:45:01.782Z,73.25
2023-01-20T03:47:44.621Z,78.22
2023-01-20T03:50:26.723Z,72.07
2023-01-20T03:52:58.492Z,75.70
2023-01-20T03:55:33.075Z,82.28
2023-01-20T03:58:05.075Z,76.82
2023-01-20T04:00:38.795Z,71.72
2023-01-20T04:03:11.723Z,77.43
2023-01-20T04:05:43.343Z,88.70
2023-01-20T04:08:14.734Z,74.47
2023-01-20T04:10:47.781Z,90.63
2023-01-20T04:13:17.082Z,83.97
2023-01-20T04:15:46.967Z,83.03
2023-01-20T04:18:17.810Z,82.63
2023-01-20T04:20:51.103Z,80.07
2023-01-20T04:23:24.602Z,87.82
2023-01-20T04:25:53.178Z,75.93
2023-01-20T04:28:22.238Z,77.35
2023-01-20T04:30:50.979Z,84.70
2023-01-20T04:33:19.522Z,79.30
2023-01-20T04:35:49.288Z,73.53
2023-01-20T04:38:17.868Z,67.65
2023-01-20T04:40:46.299Z,74.28
2023-01-20T04:43:15.565Z,66.13
2023-01-20T04:45:44.146Z,66.32
2023-01-20T04:48:13.031Z,64.57
2023-01-20T04:50:43.253Z,58.38
2023-01-20T04:53:16.885Z,59.53
2023-01-20T04:55:45.509Z,70.32
2023-01-20T04:58:14.045Z,61.85
2023-01-20T05:00:43.766Z,75.22
2023-01-20T05:03:12.354Z,68.82
2023-01-20T05:05:40.942Z,72.43
2023-01-20T05:08:09.538Z,68.18
2023-01-20T05:10:39.357Z,66.57
2023-01-20T05:13:08.369Z,67.88
2023-01-20T05:15:37.343Z,74.95
2023-01-20T05:18:05.990Z,71.05
2023-01-20T05:20:35.198Z,74.88
2023-01-20T05:23:06.583Z,81.38
2023-01-20T05:25:34.951Z,75.63
2023-01-20T05:28:04.909Z,84.57
2023-01-20T05:30:39.604Z,74.55
2023-01-20T05:33:08.063Z,75.82
2023-01-20T05:35:38.600Z,73.00
2023-01-20T05:38:07.217Z,73.85
2023-01-20T05:40:35.629Z,64.80
2023-01-20T05:43:05.693Z,68.53
2023-01-20T05:45:34.339Z,58.78
2023-01-20T05:48:03.152Z,60.40
2023-01-20T05:50:31.520Z,73.07
2023-01-20T05:53:00.310Z,55.65
2023-01-20T05:55:28.836Z,51.58
2023-01-20T05:57:57.160Z,61.75
2023-01-20T06:00:27.160Z,56.75
2023-01-20T06:02:55.655Z,59.90
2023-01-20T06:05:24.207Z,43.25
2023-01-20T06:07:52.772Z,49.58
2023-01-20T06:10:21.393Z,48.22
2023-01-20T06:12:53.287Z,52.13
2023-01-20T06:15:23.582Z,42.65
2023-01-20T06:17:56.137Z,49.08
2023-01-20T06:20:24.711Z,46.33
2023-01-20T06:22:55.875Z,40.92
2023-01-20T06:25:24.696Z,39.03
2023-01-20T06:27:53.041Z,43.30
2023-01-20T06:30:21.627Z,39.60
2023-01-20T06:32:50.003Z,38.97
2023-01-20T06:35:19.779Z,35.22
2023-01-20T06:37:48.327Z,39.97
2023-01-20T06:40:17.524Z,36.40
2023-01-20T06:42:45.939Z,36.50
2023-01-20T06:45:16.946Z,37.90
2023-01-20T06:47:49.533Z,37.35
2023-01-20T06:50:19.753Z,35.50
2023-01-20T06:52:48.228Z,37.83
2023-01-20T06:55:17.177Z,40.85
2023-01-20T06:57:45.733Z,39.30
2023-01-20T07:00:15.546Z,40.50
2023-01-20T07:02:44.258Z,36.88
2023-01-20T07:05:13.003Z,40.58
2023-01-20T07:07:44.869Z,45.78
2023-01-20T07:10:14.469Z,40.95
2023-01-20T07:12:42.809Z,41.00
2023-01-20T07:15:12.251Z,45.58
2023-01-20T07:17:40.735Z,42.78
2023-01-20T07:20:10.798Z,48.70
2023-01-20T07:22:39.404Z,51.60
2023-01-20T07:25:10.237Z,49.97
2023-01-20T07:27:38.682Z,49.15
2023-01-20T07:30:08.400Z,44.88
2023-01-20T07:32:36.795Z,43.65
2023-01-20T07:35:06.019Z,49.40
2023-01-20T07:37:35.267Z,46.47
2023-01-20T07:40:04.044Z,44.88
2023-01-20T07:42:33.892Z,35.25
2023-01-20T07:45:02.360Z,39.28
2023-01-20T07:47:30.940Z,37.15
2023-01-20T07:49:59.342Z,38.88
2023-01-20T07:52:27.746Z,37.33
2023-01-20T07:54:56.146Z,37.65
2023-01-20T07:57:24.577Z,34.47
2023-01-20T07:59:54.559Z,31.40
2023-01-20T08:02:23.269Z,34.90
2023-01-20T08:04:51.848Z,30.25
2023-01-20T08:07:20.308Z,30.58
2023-01-20T08:09:50.034Z,31.02
2023-01-20T08:12:18.678Z,36.10
2023-01-20T08:14:47.130Z,32.95
2023-01-20T08:17:17.294Z,31.15
2023-01-20T08:19:45.969Z,27.58
2023-01-20T08:22:14.473Z,28.88
2023-01-20T08:24:42.917Z,29.02
2023-01-20T08:27:11.444Z,30.10
2023-01-20T08:29:39.817Z,32.17
2023-01-20T08:32:08.434Z,30.38
2023-01-20T08:34:38.961Z,28.35
2023-01-20T08:37:07.705Z,27.10
2023-01-20T08:39:36.073Z,30.35
2023-01-20T08:42:04.673Z,28.80
2023-01-20T08:44:33.257Z,24.35
2023-01-20T08:47:03.090Z,30.40
2023-01-20T08:49:31.617Z,24.95
2023-01-20T08:52:01.637Z,27.17
2023-01-20T08:54:34.342Z,26.73
2023-01-20T08:57:03.077Z,24.80
2023-01-20T08:59:31.467Z,27.92
2023-01-20T09:01:59.896Z,23.80
2023-01-20T09:04:28.365Z,27.60
2023-01-20T09:06:57.259Z,30.98
2023-01-20T09:09:27.814Z,20.98
2023-01-20T09:11:56.218Z,27.65
2023-01-20T09:14:27.227Z,20.55
2023-01-20T09:16:55.772Z,23.80
2023-01-20T09:19:24.157Z,22.75
2023-01-20T09:21:52.723Z,25.80
2023-01-20T09:24:25.083Z,23.95
2023-01-20T09:26:56.740Z,24.33
2023-01-20T09:29:25.662Z,28.60
2023-01-20T09:31:58.142Z,31.55
2023-01-20T09:34:29.789Z,25.75
2023-01-20T09:37:23.205Z,28.70
2023-01-20T09:40:09.693Z,30.95
2023-01-20T09:43:12.659Z,32.22
2023-01-20T09:45:50.036Z,31.63
2023-01-20T09:48:46.046Z,31.15
2023-01-20T09:51:37.728Z,28.98
2023-01-20T09:54:13.268Z,29.75
2023-01-20T09:56:47.782Z,32.70
2023-01-20T09:59:25.806Z,27.40
2023-01-20T10:01:58.809Z,28.90
2023-01-20T10:04:33.825Z,28.13
2023-01-20T10:07:11.604Z,27.23
2023-01-20T10:09:46.069Z,29.65
2023-01-20T10:12:19.723Z,39.75
2023-01-20T10:14:56.356Z,30.65
2023-01-20T10:17:30.005Z,33.55
2023-01-20T10:20:03.994Z,27.23
2023-01-20T10:22:38.090Z,33.88
2023-01-20T10:25:13.850Z,32.35
2023-01-20T10:27:51.359Z,27.67
2023-01-20T10:30:26.734Z,25.38
2023-01-20T10:33:01.824Z,29.75
2023-01-20T10:35:35.928Z,25.77
2023-01-20T10:38:08.791Z,27.00
2023-01-20T10:40:43.153Z,24.30
2023-01-20T10:43:14.045Z,24.20
2023-01-20T10:45:58.577Z,20.27
2023-01-20T10:48:42.195Z,25.58
2023-01-20T10:51:18.247Z,23.75
2023-01-20T10:53:56.686Z,21.92
2023-01-20T10:56:36.676Z,21.90
2023-01-20T10:59:12.705Z,21.75
2023-01-20T11:01:46.151Z,24.45
2023-01-20T11:04:20.563Z,27.13
2023-01-20T11:06:53.182Z,31.08
2023-01-20T11:09:28.163Z,28.45
2023-01-20T11:11:58.720Z,30.33
2023-01-20T11:14:27.163Z,27.33
2023-01-20T11:17:04.359Z,31.75
2023-01-20T11:19:54.356Z,26.50
2023-01-20T11:22:33.675Z,29.15
2023-01-20T11:25:06.147Z,26.95
2023-01-20T11:27:46.428Z,28.35
2023-01-20T11:30:27.363Z,26.55
2023-01-20T11:33:20.339Z,23.27
2023-01-20T11:36:07.822Z,25.52
2023-01-20T11:38:45.129Z,26.75
2023-01-20T11:41:27.025Z,22.85
2023-01-20T11:43:58.517Z,19.90
2023-01-20T11:46:33.665Z,24.08
2023-01-20T11:49:19.803Z,22.77
2023-01-20T11:51:51.516Z,27.80
2023-01-20T11:54:23.301Z,30.25
2023-01-20T11:56:57.088Z,28.08
2023-01-20T11:59:30.235Z,33.75
2023-01-20T12:02:02.322Z,35.05
2023-01-20T12:05:07.937Z,34.83
2023-01-20T12:07:46.529Z,35.60
2023-01-20T12:10:23.288Z,35.00
2023-01-20T12:12:56.228Z,41.72
2023-01-20T12:15:27.327Z,34.58
2023-01-20T12:18:04.865Z,37.45
2023-01-20T12:20:54.852Z,32.67
2023-01-20T12:23:45.748Z,28.58
2023-01-20T12:26:19.641Z,34.33
2023-01-20T12:28:55.949Z,38.92
2023-01-20T12:31:27.611Z,36.75
2023-01-20T12:34:00.868Z,32.35
2023-01-20T12:36:51.551Z,30.20
2023-01-20T12:39:55.652Z,34.80
2023-01-20T12:42:42.879Z,30.90
2023-01-20T12:45:24.561Z,32.33
2023-01-20T12:48:14.015Z,39.30
2023-01-20T12:50:57.315Z,28.48
2023-01-20T12:53:57.189Z,29.38
2023-01-20T12:56:40.185Z,35.15
2023-01-20T12:59:22.900Z,26.42
2023-01-20T13:02:09.217Z,30.98
2023-01-20T13:05:07.023Z,25.08
2023-01-20T13:07:47.232Z,29.35
2023-01-20T13:10:50.997Z,29.10
2023-01-20T13:13:48.061Z,30.95
2023-01-20T13:16:34.298Z,33.88
2023-01-20T13:21:37.995Z,24.50
2023-01-20T13:24:07.321Z,26.75
2023-01-20T13:26:37.706Z,22.23
2023-01-20T13:29:21.314Z,20.08
2023-01-20T13:31:52.757Z,24.23
2023-01-20T13:34:35.850Z,18.75
2023-01-20T13:37:27.367Z,18.25
2023-01-20T13:39:58.033Z,21.50
2023-01-20T13:42:32.521Z,17.75
2023-01-20T13:45:27.609Z,20.58
2023-01-20T13:47:59.449Z,18.35
2023-01-20T13:50:32.827Z,17.73
2023-01-20T13:53:15.313Z,19.00
2023-01-20T13:55:54.813Z,18.92
2023-01-20T13:58:25.544Z,24.42
2023-01-20T14:00:56.937Z,21.27
2023-01-20T14:03:28.807Z,20.55
2023-01-20T14:05:59.933Z,16.92
2023-01-20T14:08:30.580Z,19.15
2023-01-20T14:11:11.476Z,15.70
2023-01-20T14:13:40.556Z,23.58
2023-01-20T14:16:20.582Z,16.42
2023-01-20T14:18:49.730Z,11.57
2023-01-20T14:21:26.079Z,12.60
2023-01-20T14:23:54.719Z,14.15
2023-01-20T14:26:25.782Z,14.50
2023-01-20T14:28:56.207Z,21.50
2023-01-20T14:31:35.254Z,17.77
2023-01-20T14:34:22.810Z,13.70
2023-01-20T14:36:52.253Z,17.45
2023-01-20T14:39:22.865Z,16.65
2023-01-20T14:41:52.937Z,18.02
2023-01-20T14:44:23.198Z,17.15
2023-01-20T14:46:56.485Z,14.55
2023-01-20T14:49:32.609Z,17.27
2023-01-20T14:52:02.204Z,16.90
2023-01-20T14:54:36.303Z,17.58
2023-01-20T14:57:18.631Z,13.43
2023-01-20T14:59:47.421Z,14.60
2023-01-20T15:02:22.992Z,16.80
2023-01-20T15:04:51.618Z,15.60
2023-01-20T15:07:28.244Z,14.85
2023-01-20T15:10:02.951Z,15.65
2023-01-20T15:12:34.019Z,19.63
2023-01-20T15:15:13.911Z,16.50
2023-01-20T15:18:06.819Z,19.67
2023-01-20T15:20:37.033Z,19.45
2023-01-20T15:23:15.735Z,20.05
2023-01-20T15:25:44.346Z,19.60
2023-01-20T15:28:24.915Z,19.70
2023-01-20T15:30:54.944Z,19.38
2023-01-20T15:33:25.762Z,16.98
2023-01-20T15:35:56.173Z,23.52
2023-01-20T15:38:25.927Z,18.58
2023-01-20T15:40:54.389Z,19.45
2023-01-20T15:43:24.743Z,17.08
2023-01-20T15:45:53.200Z,21.85
2023-01-20T15:48:24.604Z,12.65
2023-01-20T15:50:53.009Z,17.23
2023-01-20T15:53:21.465Z,12.98
2023-01-20T15:55:51.877Z,18.30
2023-01-20T15:58:26.754Z,20.63
2023-01-20T16:00:56.446Z,13.32
2023-01-20T16:03:27.464Z,17.35
2023-01-20T16:05:56.974Z,12.93
2023-01-20T16:08:30.384Z,19.00
2023-01-20T16:10:59.048Z,20.90
2023-01-20T16:13:27.659Z,19.55
2023-01-20T16:15:56.969Z,19.63
2023-01-20T16:18:26.852Z,20.70
2023-01-20T16:20:55.380Z,17.15
2023-01-20T16:23:24.063Z,18.17
2023-01-20T16:25:52.557Z,23.77
2023-01-20T16:28:24.077Z,19.30
2023-01-20T16:30:54.156Z,20.15
2023-01-20T16:33:24.543Z,19.05
2023-01-20T16:35:56.011Z,18.67
2023-01-20T16:38:26.069Z,13.23
2023-01-20T16:40:58.379Z,12.20
2023-01-20T16:43:26.990Z,17.73
2023-01-20T16:45:55.956Z,19.80
2023-01-20T16:48:26.600Z,16.30
2023-01-20T16:50:56.727Z,16.92
2023-01-20T16:53:25.347Z,21.80
2023-01-20T16:55:53.733Z,16.98
2023-01-20T16:58:22.636Z,18.77
2023-01-20T17:00:53.023Z,23.67
2023-01-20T17:03:21.636Z,22.08
2023-01-20T17:05:50.086Z,18.65
2023-01-20T17:08:19.909Z,17.00
2023-01-20T17:10:48.783Z,17.38
2023-01-20T17:13:17.199Z,22.02
2023-01-20T17:15:46.690Z,16.33
2023-01-20T17:18:15.291Z,20.65
2023-01-20T17:20:43.806Z,19.17
2023-01-20T17:23:12.959Z,17.70
2023-01-20T17:25:45.807Z,21.60
2023-01-20T17:28:14.308Z,16.55
2023-01-20T17:30:42.771Z,14.82
2023-01-20T17:33:11.400Z,36.95
2023-01-20T17:35:39.969Z,18.73
2023-01-20T17:38:08.513Z,17.35
2023-01-20T17:40:37.197Z,19.77
2023-01-20T17:43:07.030Z,23.45
2023-01-20T17:45:35.615Z,19.88
2023-01-20T17:48:04.726Z,19.48
2023-01-20T17:50:33.683Z,23.15
2023-01-20T17:53:02.130Z,20.17
2023-01-20T17:55:30.565Z,25.60
2023-01-20T17:57:59.345Z,28.35
2023-01-20T18:00:31.324Z,18.95
2023-01-20T18:03:00.037Z,23.83
2023-01-20T18:05:28.675Z,25.95
2023-01-20T18:07:57.144Z,26.45
2023-01-20T18:10:25.591Z,22.90
2023-01-20T18:12:53.982Z,30.58
2023-01-20T18:15:22.549Z,30.65
2023-01-20T18:17:52.384Z,28.42
2023-01-20T18:20:21.335Z,28.25
2023-01-20T18:22:50.574Z,26.13
2023-01-20T18:25:19.241Z,28.90
2023-01-20T18:27:47.779Z,27.35
2023-01-20T18:30:17.215Z,30.50
2023-01-20T18:32:46.260Z,27.80
2023-01-20T18:35:16.052Z,32.08
2023-01-20T18:37:44.455Z,27.30
2023-01-20T18:40:14.116Z,28.35
2023-01-20T18:42:44.897Z,33.17
2023-01-20T18:45:13.343Z,33.90
2023-01-20T18:47:41.851Z,34.00
2023-01-20T18:50:11.379Z,31.30
2023-01-20T18:52:41.277Z,42.45
2023-01-20T18:55:10.406Z,34.13
2023-01-20T18:57:38.814Z,32.85
2023-01-20T19:00:08.827Z,37.65
2023-01-20T19:02:37.372Z,35.13
2023-01-20T19:05:06.703Z,31.20
2023-01-20T19:07:35.168Z,31.42
2023-01-20T19:10:05.579Z,36.17
2023-01-20T19:12:34.175Z,31.27
2023-01-20T19:15:02.663Z,38.70
2023-01-20T19:17:33.040Z,48.97
2023-01-20T19:20:01.535Z,48.10
2023-01-20T19:22:30.908Z,37.03
2023-01-20T19:25:00.191Z,40.95
2023-01-20T19:27:32.154Z,41.65
2023-01-20T19:30:01.091Z,40.53
2023-01-20T19:32:29.828Z,34.13
2023-01-20T19:34:58.286Z,38.45
2023-01-20T19:37:27.786Z,42.90
2023-01-20T19:39:56.706Z,42.60
2023-01-20T19:42:25.929Z,38.90
2023-01-20T19:44:56.067Z,39.72
2023-01-20T19:47:24.810Z,42.08
2023-01-20T19:49:53.328Z,42.53
2023-01-20T19:52:22.019Z,36.08
2023-01-20T19:54:51.952Z,43.72
2023-01-20T19:57:20.744Z,40.17
2023-01-20T19:59:49.306Z,38.33
2023-01-20T20:02:19.116Z,43.30
2023-01-20T20:04:47.560Z,48.97
2023-01-20T20:07:16.018Z,40.40
2023-01-20T20:09:44.696Z,35.95
2023-01-20T20:12:13.519Z,40.88
2023-01-20T20:14:42.803Z,46.90
2023-01-20T20:17:11.316Z,41.92
2023-01-20T20:19:41.233Z,39.28
2023-01-20T20:22:09.811Z,46.55
2023-01-20T20:24:38.210Z,35.63
2023-01-20T20:27:06.643Z,44.97
2023-01-20T20:29:35.111Z,47.80
2023-01-20T20:32:03.555Z,50.58
2023-01-20T20:34:33.449Z,43.45
2023-01-20T20:37:03.857Z,41.15
2023-01-20T20:39:32.251Z,43.92
2023-01-20T20:42:00.713Z,41.13
2023-01-20T20:44:29.090Z,42.05
2023-01-20T20:46:57.911Z,47.28
2023-01-20T20:49:26.433Z,45.20
2023-01-20T20:51:54.796Z,44.10
2023-01-20T20:54:24.739Z,39.85
2023-01-20T20:56:53.240Z,42.78
2023-01-20T20:59:24.608Z,51.47
2023-01-20T21:01:54.349Z,40.63
2023-01-20T21:04:23.118Z,44.60
2023-01-20T21:06:51.591Z,39.58
2023-01-20T21:09:20.180Z,39.63
2023-01-20T21:11:50.075Z,46.38
2023-01-20T21:14:21.242Z,41.35
2023-01-20T21:16:50.275Z,45.20
2023-01-20T21:19:18.740Z,47.67
2023-01-20T21:21:47.393Z,45.97
2023-01-20T21:24:15.806Z,46.28
2023-01-20T21:26:44.779Z,43.38
2023-01-20T21:29:15.001Z,43.75
2023-01-20T21:31:43.466Z,41.53
2023-01-20T21:34:15.453Z,48.33
2023-01-20T21:36:43.977Z,45.22
2023-01-20T21:39:13.117Z,45.38
2023-01-20T21:41:42.210Z,43.35
2023-01-20T21:44:29.728Z,50.58
2023-01-20T21:47:01.812Z,42.45
2023-01-20T21:49:48.187Z,39.65
2023-01-20T21:52:36.404Z,50.97
2023-01-20T21:55:07.428Z,46.53
2023-01-20T21:57:36.287Z,46.53
2023-01-20T22:00:06.881Z,49.03
2023-01-20T22:02:36.887Z,45.40
2023-01-20T22:05:05.913Z,48.25
2023-01-20T22:07:34.465Z,44.80
2023-01-20T22:10:03.031Z,50.88
2023-01-20T22:12:34.532Z,44.17
2023-01-20T22:15:04.061Z,43.13
2023-01-20T22:17:32.479Z,43.92
2023-01-20T22:20:02.475Z,40.92
2023-01-20T22:22:30.893Z,55.25
2023-01-20T22:24:59.621Z,51.78
2023-01-20T22:27:28.375Z,50.45
2023-01-20T22:29:56.967Z,50.80
2023-01-20T22:32:26.069Z,48.60
2023-01-20T22:34:54.507Z,46.85
2023-01-20T22:37:24.448Z,53.65
2023-01-20T22:39:53.113Z,48.40
2023-01-20T22:42:21.629Z,42.92
2023-01-20T22:44:50.089Z,56.40
2023-01-20T22:47:18.493Z,52.03
2023-01-20T22:49:47.009Z,48.72
2023-01-20T22:52:15.617Z,49.85
2023-01-20T22:54:45.450Z,49.38
2023-01-20T22:57:13.850Z,53.28
2023-01-20T22:59:42.357Z,49.22
2023-01-20T23:02:10.896Z,47.67
2023-01-20T23:04:39.511Z,44.92
2023-01-20T23:07:07.930Z,52.17
2023-01-20T23:09:36.391Z,46.15
2023-01-20T23:12:06.882Z,46.90
2023-01-20T23:14:52.139Z,51.88
2023-01-20T23:17:20.733Z,47.90
2023-01-20T23:19:49.121Z,45.55
2023-01-20T23:22:18.282Z,45.45
2023-01-20T23:24:47.104Z,52.00
2023-01-20T23:27:19.349Z,47.53
2023-01-20T23:29:49.102Z,49.28
2023-01-20T23:32:17.930Z,48.47
2023-01-20T23:34:46.486Z,51.60
2023-01-20T23:37:14.919Z,52.90
2023-01-20T23:39:43.434Z,46.15
2023-01-20T23:42:11.910Z,47.08
2023-01-20T23:44:41.717Z,47.67
2023-01-20T23:47:10.531Z,51.28
2023-01-20T23:49:38.911Z,52.45
2023-01-20T23:52:07.626Z,49.40
2023-01-20T23:54:36.142Z,62.80
2023-01-20T23:57:04.694Z,54.22
2023-01-20T23:59:33.110Z,48.60
